createdAt,value
2023-01-07T00:00:05.190Z,66.50
2023-01-07T00:02:35.827Z,66.10
2023-01-07T00:05:10.751Z,65.90
2023-01-07T00:07:47.074Z,66.40
2023-01-07T00:10:24.109Z,63.60
2023-01-07T00:12:54.429Z,64.10
2023-01-07T00:15:24.729Z,62.80
2023-01-07T00:17:55.008Z,63.50
2023-01-07T00:20:40.439Z,62.30
2023-01-07T00:23:21.235Z,62.00
2023-01-07T00:26:33.658Z,60.90
2023-01-07T00:29:08.554Z,61.40
2023-01-07T00:31:42.264Z,61.70
2023-01-07T00:34:14.142Z,61.70
2023-01-07T00:36:52.675Z,62.10
2023-01-07T00:39:24.369Z,63.00
2023-01-07T00:42:15.952Z,64.40
2023-01-07T00:44:46.775Z,63.60
2023-01-07T00:47:17.400Z,62.80
2023-01-07T00:49:49.236Z,62.30
2023-01-07T00:52:35.394Z,60.00
2023-01-07T00:55:06.941Z,59.50
2023-01-07T00:57:41.350Z,58.80
2023-01-07T01:00:15.010Z,60.10
2023-01-07T01:02:45.907Z,61.80
2023-01-07T01:05:17.757Z,60.20
2023-01-07T01:07:49.192Z,59.40
2023-01-07T01:10:22.423Z,58.80
2023-01-07T01:12:54.279Z,59.60
2023-01-07T01:15:26.592Z,56.60
2023-01-07T01:17:58.189Z,58.00
2023-01-07T01:20:30.624Z,58.40
2023-01-07T01:23:01.286Z,56.70
2023-01-07T01:25:32.140Z,55.70
2023-01-07T01:28:02.776Z,56.90
2023-01-07T01:30:40.372Z,58.10
2023-01-07T01:33:11.358Z,58.90
2023-01-07T01:35:47.117Z,58.50
2023-01-07T01:38:22.829Z,58.40
2023-01-07T01:41:00.480Z,60.80
2023-01-07T01:43:39.836Z,61.80
2023-01-07T01:46:24.624Z,62.00
2023-01-07T01:49:09.099Z,61.20
2023-01-07T01:51:43.997Z,60.00
2023-01-07T01:54:18.454Z,61.90
2023-01-07T01:57:09.693Z,61.70
2023-01-07T01:59:45.191Z,60.80
2023-01-07T02:02:22.219Z,60.00
2023-01-07T02:05:03.586Z,58.40
2023-01-07T02:07:34.353Z,59.10
2023-01-07T02:10:15.769Z,58.70
2023-01-07T02:13:31.099Z,57.00
2023-01-07T02:16:28.062Z,58.50
2023-01-07T02:19:01.928Z,56.60
2023-01-07T02:21:47.405Z,55.00
2023-01-07T02:24:50.621Z,57.70
2023-01-07T02:27:31.522Z,56.70
2023-01-07T02:30:31.111Z,55.90
2023-01-07T02:33:36.862Z,55.30
2023-01-07T02:36:21.346Z,58.00
2023-01-07T02:39:25.329Z,54.50
2023-01-07T02:42:22.552Z,55.60
2023-01-07T02:45:36.056Z,57.50
2023-01-07T02:48:14.836Z,56.80
2023-01-07T02:50:45.496Z,55.60
2023-01-07T02:53:22.220Z,55.40
2023-01-07T02:56:15.901Z,55.40
2023-01-07T02:59:17.113Z,54.60
2023-01-07T03:01:58.464Z,57.10
2023-01-07T03:05:08.508Z,56.40
2023-01-07T03:07:58.466Z,55.80
2023-01-07T03:11:10.068Z,55.40
2023-01-07T03:14:06.224Z,57.40
2023-01-07T03:16:47.848Z,57.80
2023-01-07T03:19:46.125Z,58.80
2023-01-07T03:22:20.286Z,57.20
2023-01-07T03:24:56.658Z,55.50
2023-01-07T03:27:29.002Z,56.60
2023-01-07T03:30:05.223Z,56.80
2023-01-07T03:32:42.082Z,55.90
2023-01-07T03:35:13.356Z,54.80
2023-01-07T03:37:45.454Z,55.00
2023-01-07T03:40:16.781Z,55.50
2023-01-07T03:42:51.186Z,56.90
2023-01-07T03:45:25.771Z,56.90
2023-01-07T03:48:02.366Z,56.00
2023-01-07T03:50:33.117Z,56.20
2023-01-07T03:53:03.797Z,57.80
2023-01-07T03:55:35.762Z,58.00
2023-01-07T03:58:07.036Z,59.30
2023-01-07T04:00:37.767Z,59.30
2023-01-07T04:03:08.473Z,58.70
2023-01-07T04:05:39.479Z,57.20
2023-01-07T04:08:10.742Z,56.20
2023-01-07T04:10:41.524Z,57.60
2023-01-07T04:13:12.404Z,58.30
2023-01-07T04:15:43.338Z,57.30
2023-01-07T04:18:14.113Z,58.80
2023-01-07T04:20:47.844Z,58.60
2023-01-07T04:23:19.304Z,58.00
2023-01-07T04:25:51.332Z,58.60
2023-01-07T04:28:21.995Z,59.30
2023-01-07T04:30:52.492Z,58.10
2023-01-07T04:33:24.003Z,58.40
2023-01-07T04:35:55.705Z,57.60
2023-01-07T04:38:32.283Z,57.20
2023-01-07T04:41:03.265Z,57.90
2023-01-07T04:43:36.177Z,58.10
2023-01-07T04:46:07.928Z,59.50
2023-01-07T04:48:38.630Z,58.10
2023-01-07T04:51:11.335Z,59.40
2023-01-07T04:53:42.044Z,58.70
2023-01-07T04:56:13.168Z,58.60
2023-01-07T04:58:44.005Z,59.70
2023-01-07T05:01:15.119Z,60.40
2023-01-07T05:03:46.056Z,61.10
2023-01-07T05:06:16.749Z,60.40
2023-01-07T05:08:47.527Z,61.40
2023-01-07T05:11:23.585Z,60.10
2023-01-07T05:14:03.408Z,60.00
2023-01-07T05:16:34.294Z,60.70
2023-01-07T05:19:04.979Z,59.80
2023-01-07T05:21:36.017Z,59.70
2023-01-07T05:24:06.855Z,60.40
2023-01-07T05:26:38.158Z,60.20
2023-01-07T05:29:09.315Z,60.60
2023-01-07T05:31:40.599Z,59.70
2023-01-07T05:34:11.385Z,59.90
2023-01-07T05:36:42.477Z,61.00
2023-01-07T05:39:13.516Z,61.30
2023-01-07T05:41:45.722Z,61.30
2023-01-07T05:44:16.506Z,60.20
2023-01-07T05:46:47.559Z,60.20
2023-01-07T05:49:18.218Z,61.20
2023-01-07T05:51:50.424Z,60.70
2023-01-07T05:54:21.107Z,60.10
2023-01-07T05:56:51.878Z,60.80
2023-01-07T05:59:22.806Z,61.10
2023-01-07T06:01:55.129Z,60.40
2023-01-07T06:04:27.347Z,61.70
2023-01-07T06:06:58.058Z,61.20
2023-01-07T06:09:33.272Z,61.00
2023-01-07T06:12:04.797Z,61.80
2023-01-07T06:14:36.417Z,61.30
2023-01-07T06:17:08.813Z,62.80
2023-01-07T06:22:24.345Z,62.00
2023-01-07T06:24:58.116Z,62.00
2023-01-07T06:27:31.788Z,61.60
2023-01-07T06:30:04.624Z,62.50
2023-01-07T06:33:03.585Z,62.10
2023-01-07T06:35:35.334Z,62.50
2023-01-07T06:38:06.328Z,62.80
2023-01-07T06:40:37.393Z,62.60
2023-01-07T06:43:08.153Z,63.20
2023-01-07T06:45:40.727Z,63.00
2023-01-07T06:48:13.309Z,62.80
2023-01-07T06:50:44.145Z,63.60
2023-01-07T06:53:18.444Z,63.60
2023-01-07T06:55:55.322Z,62.90
2023-01-07T06:58:34.563Z,63.60
2023-01-07T07:01:12.735Z,63.00
2023-01-07T07:03:43.573Z,62.60
2023-01-07T07:06:18.727Z,63.00
2023-01-07T07:08:50.595Z,62.30
2023-01-07T07:11:22.064Z,62.90
2023-01-07T07:13:52.728Z,64.40
2023-01-07T07:16:26.790Z,63.50
2023-01-07T07:19:00.930Z,63.90
2023-01-07T07:21:31.625Z,64.00
2023-01-07T07:24:03.606Z,63.50
2023-01-07T07:26:34.310Z,63.50
2023-01-07T07:29:04.962Z,63.70
2023-01-07T07:31:35.657Z,63.50
2023-01-07T07:34:08.117Z,63.90
2023-01-07T07:36:39.732Z,63.90
2023-01-07T07:39:11.999Z,64.20
2023-01-07T07:41:43.138Z,63.80
2023-01-07T07:44:15.138Z,64.20
2023-01-07T07:46:47.076Z,64.50
2023-01-07T07:49:22.330Z,65.10
2023-01-07T07:51:57.589Z,65.30
2023-01-07T07:54:31.069Z,65.40
2023-01-07T07:57:03.165Z,65.90
2023-01-07T07:59:34.633Z,65.70
2023-01-07T08:02:05.414Z,66.50
2023-01-07T08:04:38.436Z,66.20
2023-01-07T08:07:09.458Z,66.50
2023-01-07T08:09:40.934Z,67.10
2023-01-07T08:12:17.898Z,67.20
2023-01-07T08:14:54.239Z,67.30
2023-01-07T08:17:26.258Z,68.20
2023-01-07T08:19:59.529Z,68.00
2023-01-07T08:22:30.246Z,68.70
2023-01-07T08:25:02.174Z,69.50
2023-01-07T08:27:33.237Z,70.00
2023-01-07T08:30:06.117Z,70.70
2023-01-07T08:32:37.790Z,70.20
2023-01-07T08:35:10.216Z,70.80
2023-01-07T08:37:42.157Z,70.30
2023-01-07T08:40:15.987Z,71.20
2023-01-07T08:42:46.869Z,71.20
2023-01-07T08:45:17.768Z,71.30
2023-01-07T08:47:50.556Z,71.60
2023-01-07T08:50:24.503Z,72.30
2023-01-07T08:52:56.375Z,72.60
2023-01-07T08:55:32.643Z,72.00
2023-01-07T08:58:04.472Z,72.30
2023-01-07T09:00:38.474Z,72.70
2023-01-07T09:03:09.891Z,73.00
2023-01-07T09:05:42.171Z,73.10
2023-01-07T09:08:13.691Z,72.90
2023-01-07T09:10:44.613Z,73.90
2023-01-07T09:13:16.191Z,74.10
2023-01-07T09:15:47.674Z,74.10
2023-01-07T09:18:19.334Z,73.90
2023-01-07T09:20:50.427Z,74.70
2023-01-07T09:23:21.615Z,75.00
2023-01-07T09:25:52.415Z,74.80
2023-01-07T09:28:24.244Z,75.40
2023-01-07T09:30:56.886Z,75.70
2023-01-07T09:33:28.798Z,76.50
2023-01-07T09:36:01.335Z,75.70
2023-01-07T09:38:33.910Z,75.70
2023-01-07T09:41:04.814Z,75.10
2023-01-07T09:44:01.118Z,76.20
2023-01-07T09:46:37.322Z,76.00
2023-01-07T09:49:20.547Z,76.10
2023-01-07T09:52:03.657Z,76.70
2023-01-07T09:54:39.061Z,76.10
2023-01-07T09:57:11.804Z,75.70
2023-01-07T09:59:42.862Z,76.70
2023-01-07T10:02:49.055Z,75.50
2023-01-07T10:05:38.871Z,76.00
2023-01-07T10:08:36.139Z,76.00
2023-01-07T10:11:18.430Z,76.10
2023-01-07T10:14:37.754Z,76.60
2023-01-07T10:17:48.649Z,76.70
2023-01-07T10:20:37.253Z,77.10
2023-01-07T10:23:34.090Z,77.40
2023-01-07T10:26:05.335Z,77.10
2023-01-07T10:28:53.339Z,78.00
2023-01-07T10:31:30.014Z,77.40
2023-01-07T10:34:05.802Z,79.00
2023-01-07T10:36:47.641Z,77.20
2023-01-07T10:39:51.425Z,78.20
2023-01-07T10:42:41.265Z,77.80
2023-01-07T10:45:26.636Z,78.70
2023-01-07T10:48:24.081Z,78.50
2023-01-07T10:51:28.041Z,78.50
2023-01-07T10:54:24.243Z,79.00
2023-01-07T10:57:00.601Z,78.70
2023-01-07T10:59:31.823Z,79.00
2023-01-07T11:02:03.532Z,79.00
2023-01-07T11:04:39.553Z,79.30
2023-01-07T11:07:18.200Z,79.20
2023-01-07T11:09:51.329Z,79.60
2023-01-07T11:12:39.979Z,79.10
2023-01-07T11:15:51.495Z,79.90
2023-01-07T11:18:48.070Z,80.00
2023-01-07T11:21:44.367Z,80.00
2023-01-07T11:24:41.005Z,80.00
2023-01-07T11:27:22.390Z,79.90
2023-01-07T11:30:04.599Z,80.50
2023-01-07T11:32:42.536Z,80.30
2023-01-07T11:35:22.445Z,80.60
2023-01-07T11:37:55.266Z,80.20
2023-01-07T11:40:33.397Z,80.50
2023-01-07T11:43:05.881Z,80.90
2023-01-07T11:45:40.257Z,80.10
2023-01-07T11:48:35.549Z,80.50
2023-01-07T11:51:11.375Z,79.80
2023-01-07T11:53:54.782Z,80.20
2023-01-07T11:56:38.339Z,79.60
2023-01-07T11:59:19.054Z,79.70
2023-01-07T12:01:52.190Z,79.80
2023-01-07T12:04:52.865Z,79.50
2023-01-07T12:07:25.892Z,79.10
2023-01-07T12:09:56.615Z,79.40
2023-01-07T12:12:43.249Z,78.80
2023-01-07T12:15:31.535Z,78.80
2023-01-07T12:18:11.732Z,78.40
2023-01-07T12:21:21.053Z,78.70
2023-01-07T12:24:09.167Z,77.90
2023-01-07T12:27:16.485Z,78.00
2023-01-07T12:30:05.741Z,78.50
2023-01-07T12:33:03.489Z,78.70
2023-01-07T12:35:47.803Z,78.30
2023-01-07T12:38:45.565Z,78.90
2023-01-07T12:41:40.490Z,78.90
2023-01-07T12:44:26.687Z,79.50
2023-01-07T12:47:35.068Z,79.70
2023-01-07T12:50:46.725Z,79.70
2023-01-07T12:53:20.143Z,78.60
2023-01-07T12:56:08.724Z,79.20
2023-01-07T12:59:05.583Z,79.10
2023-01-07T13:02:11.188Z,78.20
2023-01-07T13:05:06.379Z,79.10
2023-01-07T13:07:46.126Z,79.10
2023-01-07T13:10:37.751Z,78.80
2023-01-07T13:13:31.069Z,79.20
2023-01-07T13:16:02.371Z,79.90
2023-01-07T13:18:33.587Z,80.00
2023-01-07T13:21:13.439Z,79.80
2023-01-07T13:23:53.448Z,80.60
2023-01-07T13:26:51.482Z,79.60
2023-01-07T13:29:21.645Z,79.80
2023-01-07T13:32:35.152Z,80.70
2023-01-07T13:35:32.544Z,80.50
2023-01-07T13:38:33.619Z,80.60
2023-01-07T13:41:07.800Z,80.00
2023-01-07T13:43:50.777Z,80.80
2023-01-07T13:46:30.609Z,81.00
2023-01-07T13:49:03.875Z,81.10
2023-01-07T13:51:41.763Z,81.50
2023-01-07T13:54:13.280Z,82.30
2023-01-07T13:56:45.655Z,82.40
2023-01-07T13:59:34.182Z,82.70
2023-01-07T14:02:21.143Z,83.00
2023-01-07T14:04:55.037Z,83.50
2023-01-07T14:07:26.769Z,83.90
2023-01-07T14:10:05.201Z,84.30
2023-01-07T14:13:07.480Z,84.70
2023-01-07T14:15:41.493Z,84.60
2023-01-07T14:18:27.755Z,84.70
2023-01-07T14:21:21.106Z,85.00
2023-01-07T14:24:07.395Z,85.10
2023-01-07T14:27:30.509Z,85.30
2023-01-07T14:30:16.402Z,85.70
2023-01-07T14:32:47.846Z,86.10
2023-01-07T14:35:48.808Z,86.30
2023-01-07T14:38:38.867Z,86.40
2023-01-07T14:41:17.973Z,87.10
2023-01-07T14:44:03.507Z,86.30
2023-01-07T14:46:47.085Z,86.30
2023-01-07T14:49:36.137Z,86.30
2023-01-07T14:52:34.238Z,86.50
2023-01-07T14:55:47.736Z,86.60
2023-01-07T14:58:21.536Z,87.20
2023-01-07T15:01:16.751Z,87.50
2023-01-07T15:04:11.496Z,87.20
2023-01-07T15:06:45.789Z,87.50
2023-01-07T15:09:49.074Z,87.80
2023-01-07T15:12:48.367Z,87.20
2023-01-07T15:15:48.474Z,87.80
2023-01-07T15:18:19.439Z,87.80
2023-01-07T15:20:56.124Z,87.80
2023-01-07T15:23:52.474Z,87.20
2023-01-07T15:26:49.233Z,86.70
2023-01-07T15:29:29.511Z,86.90
2023-01-07T15:32:28.552Z,87.50
2023-01-07T15:35:04.776Z,85.90
2023-01-07T15:37:38.327Z,86.10
2023-01-07T15:40:19.224Z,85.60
2023-01-07T15:42:53.719Z,85.60
2023-01-07T15:45:27.767Z,85.40
2023-01-07T15:48:12.889Z,85.70
2023-01-07T15:50:48.607Z,85.30
2023-01-07T15:53:28.148Z,85.80
2023-01-07T15:56:09.280Z,85.90
2023-01-07T15:58:43.322Z,85.60
2023-01-07T16:01:28.206Z,86.50
2023-01-07T16:04:02.459Z,85.70
2023-01-07T16:06:47.425Z,86.00
2023-01-07T16:09:24.107Z,85.70
2023-01-07T16:11:55.043Z,85.70
2023-01-07T16:14:28.725Z,86.00
2023-01-07T16:17:18.796Z,86.00
2023-01-07T16:19:49.542Z,86.00
2023-01-07T16:22:25.410Z,86.60
2023-01-07T16:24:56.753Z,85.80
2023-01-07T16:27:33.185Z,87.00
2023-01-07T16:30:04.000Z,86.30
2023-01-07T16:32:36.566Z,86.60
2023-01-07T16:35:37.313Z,86.40
2023-01-07T16:38:09.569Z,86.30
2023-01-07T16:40:42.712Z,87.50
2023-01-07T16:43:44.532Z,86.20
2023-01-07T16:46:21.605Z,86.20
2023-01-07T16:49:11.999Z,86.20
2023-01-07T16:51:53.921Z,86.20
2023-01-07T16:54:32.788Z,87.00
2023-01-07T16:57:20.876Z,87.20
2023-01-07T16:59:59.311Z,86.90
2023-01-07T17:02:36.048Z,87.50
2023-01-07T17:05:19.011Z,87.40
2023-01-07T17:08:21.895Z,87.30
2023-01-07T17:11:03.315Z,87.80
2023-01-07T17:13:42.171Z,87.80
2023-01-07T17:16:21.003Z,87.40
2023-01-07T17:18:51.999Z,87.70
2023-01-07T17:21:44.183Z,87.60
2023-01-07T17:24:44.111Z,88.20
2023-01-07T17:27:49.501Z,88.20
2023-01-07T17:30:25.286Z,88.30
2023-01-07T17:32:55.977Z,88.40
2023-01-07T17:35:29.427Z,88.30
2023-01-07T17:38:00.401Z,88.70
2023-01-07T17:40:30.653Z,88.50
2023-01-07T17:43:18.781Z,88.70
2023-01-07T17:45:49.155Z,88.90
2023-01-07T17:48:19.856Z,88.60
2023-01-07T17:50:51.139Z,88.90
2023-01-07T17:53:36.140Z,88.20
2023-01-07T17:56:06.893Z,89.00
2023-01-07T17:58:39.244Z,87.60
2023-01-07T18:01:13.003Z,89.00
2023-01-07T18:03:43.822Z,88.00
2023-01-07T18:06:23.610Z,88.10
2023-01-07T18:08:55.159Z,88.10
2023-01-07T18:11:46.975Z,88.50
2023-01-07T18:14:20.209Z,88.10
2023-01-07T18:16:51.304Z,88.90
2023-01-07T18:19:22.901Z,89.30
2023-01-07T18:21:53.514Z,90.00
2023-01-07T18:24:25.130Z,89.70
2023-01-07T18:26:56.630Z,89.70
2023-01-07T18:29:27.400Z,90.10
2023-01-07T18:31:59.788Z,90.10
2023-01-07T18:34:31.545Z,89.30
2023-01-07T18:37:01.964Z,90.30
2023-01-07T18:39:32.223Z,90.50
2023-01-07T18:42:02.901Z,90.50
2023-01-07T18:44:33.959Z,89.90
2023-01-07T18:47:04.198Z,90.90
2023-01-07T18:49:34.548Z,90.40
2023-01-07T18:52:04.835Z,90.10
2023-01-07T18:54:35.334Z,90.60
2023-01-07T18:57:06.343Z,90.50
2023-01-07T18:59:37.781Z,90.90
2023-01-07T19:02:11.130Z,90.60
2023-01-07T19:04:43.245Z,90.60
2023-01-07T19:07:13.644Z,90.60
2023-01-07T19:09:44.237Z,90.80
2023-01-07T19:12:15.224Z,90.50
2023-01-07T19:14:45.476Z,90.30
2023-01-07T19:17:15.918Z,90.50
2023-01-07T19:19:48.725Z,90.70
2023-01-07T19:22:20.174Z,90.90
2023-01-07T19:24:50.424Z,91.20
2023-01-07T19:27:20.898Z,90.70
2023-01-07T19:29:51.312Z,90.80
2023-01-07T19:32:21.690Z,91.00
2023-01-07T19:34:54.036Z,90.80
2023-01-07T19:37:24.277Z,91.50
2023-01-07T19:39:55.037Z,90.70
2023-01-07T19:42:25.875Z,91.00
2023-01-07T19:44:57.497Z,91.50
2023-01-07T19:47:28.216Z,91.70
2023-01-07T19:50:00.825Z,91.70
2023-01-07T19:52:31.224Z,91.50
2023-01-07T19:55:01.607Z,91.50
2023-01-07T19:57:32.466Z,91.40
2023-01-07T20:00:03.518Z,91.60
2023-01-07T20:02:34.473Z,92.00
2023-01-07T20:05:04.832Z,91.40
2023-01-07T20:07:36.601Z,91.50
2023-01-07T20:10:07.148Z,91.70
2023-01-07T20:12:37.708Z,91.70
2023-01-07T20:15:08.357Z,91.60
2023-01-07T20:17:38.676Z,91.60
2023-01-07T20:20:09.640Z,91.60
2023-01-07T20:22:43.252Z,91.30
2023-01-07T20:25:14.248Z,91.50
2023-01-07T20:27:44.625Z,91.40
2023-01-07T20:30:15.492Z,90.60
2023-01-07T20:32:45.820Z,90.80
2023-01-07T20:35:16.069Z,91.10
2023-01-07T20:37:46.748Z,91.30
2023-01-07T20:40:16.979Z,90.80
2023-01-07T20:42:47.199Z,90.10
2023-01-07T20:45:17.662Z,90.30
2023-01-07T20:47:47.885Z,90.10
2023-01-07T20:50:19.994Z,89.60
2023-01-07T20:52:50.196Z,89.70
2023-01-07T20:55:20.738Z,89.40
2023-01-07T20:57:51.074Z,89.50
2023-01-07T21:00:21.908Z,89.30
2023-01-07T21:02:53.868Z,87.50
2023-01-07T21:05:26.673Z,88.30
2023-01-07T21:07:57.526Z,86.60
2023-01-07T21:13:12.605Z,84.10
2023-01-07T21:15:43.250Z,83.60
2023-01-07T21:18:13.486Z,84.20
2023-01-07T21:20:44.915Z,83.30
2023-01-07T21:23:15.848Z,81.60
2023-01-07T21:25:50.724Z,81.70
2023-01-07T21:28:21.546Z,81.70
2023-01-07T21:30:51.963Z,81.20
2023-01-07T21:33:22.293Z,81.30
2023-01-07T21:35:52.529Z,81.60
2023-01-07T21:38:31.748Z,80.70
2023-01-07T21:41:01.970Z,78.90
2023-01-07T21:43:36.400Z,77.50
2023-01-07T21:46:10.036Z,75.00
2023-01-07T21:48:46.425Z,72.40
2023-01-07T21:51:24.270Z,72.70
2023-01-07T21:53:57.445Z,72.50
2023-01-07T21:56:34.253Z,70.60
2023-01-07T21:59:05.046Z,70.50
2023-01-07T22:01:35.815Z,69.70
2023-01-07T22:04:07.860Z,67.90
2023-01-07T22:06:44.262Z,66.50
2023-01-07T22:09:18.019Z,66.60
2023-01-07T22:11:49.241Z,66.90
2023-01-07T22:14:21.801Z,65.80
2023-01-07T22:16:52.578Z,64.50
2023-01-07T22:19:23.352Z,65.30
2023-01-07T22:21:54.958Z,63.90
2023-01-07T22:24:25.701Z,63.50
2023-01-07T22:26:57.547Z,63.20
2023-01-07T22:29:28.414Z,62.20
2023-01-07T22:31:59.433Z,61.20
2023-01-07T22:34:30.135Z,61.90
2023-01-07T22:37:19.890Z,61.20
2023-01-07T22:40:02.367Z,61.10
2023-01-07T22:42:55.528Z,61.50
2023-01-07T22:45:46.258Z,61.60
2023-01-07T22:48:22.372Z,60.10
2023-01-07T22:50:57.406Z,60.60
2023-01-07T22:53:28.451Z,61.50
2023-01-07T22:56:00.824Z,59.80
2023-01-07T22:58:31.571Z,60.80
2023-01-07T23:01:02.300Z,60.90
2023-01-07T23:03:33.403Z,60.00
2023-01-07T23:06:04.283Z,61.20
2023-01-07T23:08:35.225Z,61.40
2023-01-07T23:11:06.593Z,60.10
2023-01-07T23:13:38.428Z,61.60
2023-01-07T23:16:17.568Z,61.60
2023-01-07T23:18:48.385Z,60.10
2023-01-07T23:21:20.659Z,61.20
2023-01-07T23:23:51.664Z,61.50
2023-01-07T23:26:22.309Z,60.80
2023-01-07T23:28:54.003Z,59.10
2023-01-07T23:31:24.752Z,59.70
2023-01-07T23:33:58.130Z,58.40
2023-01-07T23:36:29.521Z,59.40
2023-01-07T23:39:02.301Z,59.10
2023-01-07T23:41:35.063Z,59.20
2023-01-07T23:44:09.423Z,59.70
2023-01-07T23:46:40.348Z,58.00
2023-01-07T23:49:11.788Z,59.40
2023-01-07T23:51:51.610Z,60.10
2023-01-07T23:54:22.856Z,60.00
2023-01-07T23:56:54.298Z,58.80
2023-01-07T23:59:24.944Z,58.00
